sensor_id;sensor_type;location;lat;lon;timestamp;temperature;humidity
5588;DHT22;2816;49.778;9.986;2022-07-17T00:00:59;17.00;75.90
5588;DHT22;2816;49.778;9.986;2022-07-17T00:03:26;17.00;76.10
5588;DHT22;2816;49.778;9.986;2022-07-17T00:05:53;16.90;76.40
5588;DHT22;2816;49.778;9.986;2022-07-17T00:08:20;16.90;76.40
5588;DHT22;2816;49.778;9.986;2022-07-17T00:10:47;16.80;76.30
5588;DHT22;2816;49.778;9.986;2022-07-17T00:13:14;16.80;76.40
5588;DHT22;2816;49.778;9.986;2022-07-17T00:15:43;16.70;77.00
5588;DHT22;2816;49.778;9.986;2022-07-17T00:18:10;16.70;77.00
5588;DHT22;2816;49.778;9.986;2022-07-17T00:20:37;16.70;77.20
5588;DHT22;2816;49.778;9.986;2022-07-17T00:23:04;16.70;77.30
5588;DHT22;2816;49.778;9.986;2022-07-17T00:25:31;16.70;77.30
5588;DHT22;2816;49.778;9.986;2022-07-17T00:27:58;16.60;77.10
5588;DHT22;2816;49.778;9.986;2022-07-17T00:30:25;16.60;77.40
5588;DHT22;2816;49.778;9.986;2022-07-17T00:32:53;16.50;77.40
5588;DHT22;2816;49.778;9.986;2022-07-17T00:35:21;16.50;77.70
5588;DHT22;2816;49.778;9.986;2022-07-17T00:37:48;16.50;77.80
5588;DHT22;2816;49.778;9.986;2022-07-17T00:40:20;16.40;77.70
5588;DHT22;2816;49.778;9.986;2022-07-17T00:42:48;16.40;78.10
5588;DHT22;2816;49.778;9.986;2022-07-17T00:45:15;16.30;78.40
5588;DHT22;2816;49.778;9.986;2022-07-17T00:47:57;16.30;78.50
5588;DHT22;2816;49.778;9.986;2022-07-17T00:50:26;16.20;78.70
5588;DHT22;2816;49.778;9.986;2022-07-17T00:52:54;16.20;79.00
5588;DHT22;2816;49.778;9.986;2022-07-17T00:55:22;16.20;79.10
5588;DHT22;2816;49.778;9.986;2022-07-17T00:57:49;16.10;79.20
5588;DHT22;2816;49.778;9.986;2022-07-17T01:00:17;16.10;79.30
5588;DHT22;2816;49.778;9.986;2022-07-17T01:02:46;16.00;79.40
5588;DHT22;2816;49.778;9.986;2022-07-17T01:05:15;16.00;79.80
5588;DHT22;2816;49.778;9.986;2022-07-17T01:07:42;16.00;80.00
5588;DHT22;2816;49.778;9.986;2022-07-17T01:10:10;16.00;80.50
5588;DHT22;2816;49.778;9.986;2022-07-17T01:12:37;16.00;80.70
5588;DHT22;2816;49.778;9.986;2022-07-17T01:15:07;15.90;80.60
5588;DHT22;2816;49.778;9.986;2022-07-17T01:17:34;15.80;81.30
5588;DHT22;2816;49.778;9.986;2022-07-17T01:20:02;15.70;81.50
5588;DHT22;2816;49.778;9.986;2022-07-17T01:22:31;15.70;81.60
5588;DHT22;2816;49.778;9.986;2022-07-17T01:24:58;15.70;81.70
5588;DHT22;2816;49.778;9.986;2022-07-17T01:27:24;15.60;82.20
5588;DHT22;2816;49.778;9.986;2022-07-17T01:29:51;15.50;82.30
5588;DHT22;2816;49.778;9.986;2022-07-17T01:32:18;15.50;82.60
5588;DHT22;2816;49.778;9.986;2022-07-17T01:34:45;15.50;82.80
5588;DHT22;2816;49.778;9.986;2022-07-17T01:37:12;15.50;82.80
5588;DHT22;2816;49.778;9.986;2022-07-17T01:39:40;15.40;83.00
5588;DHT22;2816;49.778;9.986;2022-07-17T01:42:19;15.40;82.90
5588;DHT22;2816;49.778;9.986;2022-07-17T01:44:47;15.30;83.20
5588;DHT22;2816;49.778;9.986;2022-07-17T01:47:14;15.30;83.60
5588;DHT22;2816;49.778;9.986;2022-07-17T01:49:43;15.30;84.00
5588;DHT22;2816;49.778;9.986;2022-07-17T01:52:11;15.20;84.50
5588;DHT22;2816;49.778;9.986;2022-07-17T01:54:39;15.20;84.40
5588;DHT22;2816;49.778;9.986;2022-07-17T01:57:06;15.20;84.50
5588;DHT22;2816;49.778;9.986;2022-07-17T01:59:33;15.10;84.60
5588;DHT22;2816;49.778;9.986;2022-07-17T02:02:01;15.10;84.70
5588;DHT22;2816;49.778;9.986;2022-07-17T02:04:28;15.10;85.10
5588;DHT22;2816;49.778;9.986;2022-07-17T02:06:55;15.00;85.00
5588;DHT22;2816;49.778;9.986;2022-07-17T02:09:22;15.00;85.10
5588;DHT22;2816;49.778;9.986;2022-07-17T02:11:51;15.00;85.10
5588;DHT22;2816;49.778;9.986;2022-07-17T02:14:18;14.90;85.10
5588;DHT22;2816;49.778;9.986;2022-07-17T02:16:45;14.90;85.50
5588;DHT22;2816;49.778;9.986;2022-07-17T02:19:12;14.90;85.90
5588;DHT22;2816;49.778;9.986;2022-07-17T02:21:39;14.90;86.20
5588;DHT22;2816;49.778;9.986;2022-07-17T02:24:06;14.80;86.50
5588;DHT22;2816;49.778;9.986;2022-07-17T02:26:33;14.80;86.80
5588;DHT22;2816;49.778;9.986;2022-07-17T02:29:02;14.70;87.00
5588;DHT22;2816;49.778;9.986;2022-07-17T02:31:29;14.70;87.20
5588;DHT22;2816;49.778;9.986;2022-07-17T02:33:56;14.60;87.40
5588;DHT22;2816;49.778;9.986;2022-07-17T02:36:23;14.60;87.80
5588;DHT22;2816;49.778;9.986;2022-07-17T02:38:50;14.50;88.10
5588;DHT22;2816;49.778;9.986;2022-07-17T02:41:17;14.50;88.30
5588;DHT22;2816;49.778;9.986;2022-07-17T02:43:44;14.40;88.80
5588;DHT22;2816;49.778;9.986;2022-07-17T02:46:12;14.40;89.50
5588;DHT22;2816;49.778;9.986;2022-07-17T02:48:40;14.30;89.60
5588;DHT22;2816;49.778;9.986;2022-07-17T02:51:07;14.30;89.70
5588;DHT22;2816;49.778;9.986;2022-07-17T02:53:34;14.30;89.70
5588;DHT22;2816;49.778;9.986;2022-07-17T02:56:01;14.30;89.70
5588;DHT22;2816;49.778;9.986;2022-07-17T02:58:28;14.30;90.00
5588;DHT22;2816;49.778;9.986;2022-07-17T03:00:55;14.30;90.20
5588;DHT22;2816;49.778;9.986;2022-07-17T03:03:24;14.30;90.00
5588;DHT22;2816;49.778;9.986;2022-07-17T03:05:51;14.20;90.20
5588;DHT22;2816;49.778;9.986;2022-07-17T03:08:18;14.20;90.20
5588;DHT22;2816;49.778;9.986;2022-07-17T03:10:45;14.10;90.50
5588;DHT22;2816;49.778;9.986;2022-07-17T03:13:12;14.10;90.90
5588;DHT22;2816;49.778;9.986;2022-07-17T03:15:39;14.10;90.60
5588;DHT22;2816;49.778;9.986;2022-07-17T03:18:06;14.20;90.50
5588;DHT22;2816;49.778;9.986;2022-07-17T03:20:34;14.20;90.60
5588;DHT22;2816;49.778;9.986;2022-07-17T03:23:01;14.10;90.70
5588;DHT22;2816;49.778;9.986;2022-07-17T03:25:28;14.10;90.80
5588;DHT22;2816;49.778;9.986;2022-07-17T03:27:55;14.00;90.80
5588;DHT22;2816;49.778;9.986;2022-07-17T03:30:22;14.10;90.90
5588;DHT22;2816;49.778;9.986;2022-07-17T03:32:49;14.00;91.00
5588;DHT22;2816;49.778;9.986;2022-07-17T03:35:16;14.00;91.10
5588;DHT22;2816;49.778;9.986;2022-07-17T03:37:44;14.00;91.10
5588;DHT22;2816;49.778;9.986;2022-07-17T03:40:11;14.00;91.20
5588;DHT22;2816;49.778;9.986;2022-07-17T03:42:38;14.00;91.10
5588;DHT22;2816;49.778;9.986;2022-07-17T03:45:06;14.00;91.00
5588;DHT22;2816;49.778;9.986;2022-07-17T03:47:34;14.00;91.30
5588;DHT22;2816;49.778;9.986;2022-07-17T03:50:01;13.90;91.30
5588;DHT22;2816;49.778;9.986;2022-07-17T03:52:28;13.90;91.40
5588;DHT22;2816;49.778;9.986;2022-07-17T03:54:56;13.90;91.40
5588;DHT22;2816;49.778;9.986;2022-07-17T03:57:23;13.90;91.60
5588;DHT22;2816;49.778;9.986;2022-07-17T03:59:50;13.90;91.70
5588;DHT22;2816;49.778;9.986;2022-07-17T04:02:17;13.80;91.60
5588;DHT22;2816;49.778;9.986;2022-07-17T04:04:44;13.80;91.80
5588;DHT22;2816;49.778;9.986;2022-07-17T04:07:11;13.80;91.90
5588;DHT22;2816;49.778;9.986;2022-07-17T04:09:53;13.80;91.80
5588;DHT22;2816;49.778;9.986;2022-07-17T04:12:22;13.80;91.80
5588;DHT22;2816;49.778;9.986;2022-07-17T04:14:49;13.80;92.00
5588;DHT22;2816;49.778;9.986;2022-07-17T04:17:17;13.80;92.00
5588;DHT22;2816;49.778;9.986;2022-07-17T04:19:44;13.80;92.10
5588;DHT22;2816;49.778;9.986;2022-07-17T04:22:11;13.80;92.00
5588;DHT22;2816;49.778;9.986;2022-07-17T04:24:38;13.80;92.10
5588;DHT22;2816;49.778;9.986;2022-07-17T04:27:05;13.80;92.20
5588;DHT22;2816;49.778;9.986;2022-07-17T04:29:34;13.90;92.10
5588;DHT22;2816;49.778;9.986;2022-07-17T04:32:02;13.90;91.90
5588;DHT22;2816;49.778;9.986;2022-07-17T04:34:29;13.90;92.00
5588;DHT22;2816;49.778;9.986;2022-07-17T04:36:55;13.90;91.90
5588;DHT22;2816;49.778;9.986;2022-07-17T04:39:22;14.00;91.90
5588;DHT22;2816;49.778;9.986;2022-07-17T04:41:50;14.10;91.70
5588;DHT22;2816;49.778;9.986;2022-07-17T04:44:17;14.20;91.60
5588;DHT22;2816;49.778;9.986;2022-07-17T04:46:45;14.20;91.20
5588;DHT22;2816;49.778;9.986;2022-07-17T04:49:12;14.30;91.10
5588;DHT22;2816;49.778;9.986;2022-07-17T04:51:40;14.30;91.30
5588;DHT22;2816;49.778;9.986;2022-07-17T04:54:07;14.30;91.20
5588;DHT22;2816;49.778;9.986;2022-07-17T04:56:34;14.30;90.80
5588;DHT22;2816;49.778;9.986;2022-07-17T04:59:01;14.30;90.90
5588;DHT22;2816;49.778;9.986;2022-07-17T05:01:29;14.40;91.20
5588;DHT22;2816;49.778;9.986;2022-07-17T05:03:57;14.40;91.20
5588;DHT22;2816;49.778;9.986;2022-07-17T05:06:24;14.40;91.10
5588;DHT22;2816;49.778;9.986;2022-07-17T05:08:51;14.40;90.90
5588;DHT22;2816;49.778;9.986;2022-07-17T05:11:18;14.50;90.70
5588;DHT22;2816;49.778;9.986;2022-07-17T05:13:45;14.50;90.60
5588;DHT22;2816;49.778;9.986;2022-07-17T05:16:12;14.60;90.70
5588;DHT22;2816;49.778;9.986;2022-07-17T05:18:39;14.50;90.60
5588;DHT22;2816;49.778;9.986;2022-07-17T05:21:07;14.60;90.60
5588;DHT22;2816;49.778;9.986;2022-07-17T05:23:34;14.60;90.50
5588;DHT22;2816;49.778;9.986;2022-07-17T05:26:01;14.70;90.40
5588;DHT22;2816;49.778;9.986;2022-07-17T05:28:28;14.80;90.30
5588;DHT22;2816;49.778;9.986;2022-07-17T05:30:55;14.90;90.10
5588;DHT22;2816;49.778;9.986;2022-07-17T05:33:22;15.00;89.70
5588;DHT22;2816;49.778;9.986;2022-07-17T05:35:49;15.00;89.60
5588;DHT22;2816;49.778;9.986;2022-07-17T05:38:18;15.00;88.90
5588;DHT22;2816;49.778;9.986;2022-07-17T05:40:45;15.10;88.70
5588;DHT22;2816;49.778;9.986;2022-07-17T05:43:12;15.10;89.50
5588;DHT22;2816;49.778;9.986;2022-07-17T05:45:38;15.10;89.40
5588;DHT22;2816;49.778;9.986;2022-07-17T05:48:06;15.20;89.00
5588;DHT22;2816;49.778;9.986;2022-07-17T05:50:33;15.20;88.50
5588;DHT22;2816;49.778;9.986;2022-07-17T05:53:00;15.20;89.00
5588;DHT22;2816;49.778;9.986;2022-07-17T05:55:29;15.30;89.10
5588;DHT22;2816;49.778;9.986;2022-07-17T05:57:56;15.40;88.30
5588;DHT22;2816;49.778;9.986;2022-07-17T06:00:23;15.40;87.90
5588;DHT22;2816;49.778;9.986;2022-07-17T06:02:50;15.50;87.70
5588;DHT22;2816;49.778;9.986;2022-07-17T06:05:17;15.60;87.70
5588;DHT22;2816;49.778;9.986;2022-07-17T06:07:44;15.60;87.20
5588;DHT22;2816;49.778;9.986;2022-07-17T06:10:11;15.60;86.70
5588;DHT22;2816;49.778;9.986;2022-07-17T06:12:39;15.70;87.00
5588;DHT22;2816;49.778;9.986;2022-07-17T06:15:07;15.90;86.70
5588;DHT22;2816;49.778;9.986;2022-07-17T06:17:34;16.00;86.50
5588;DHT22;2816;49.778;9.986;2022-07-17T06:20:01;15.90;86.30
5588;DHT22;2816;49.778;9.986;2022-07-17T06:22:28;15.90;86.40
5588;DHT22;2816;49.778;9.986;2022-07-17T06:24:55;15.90;86.10
5588;DHT22;2816;49.778;9.986;2022-07-17T06:27:23;16.00;86.50
5588;DHT22;2816;49.778;9.986;2022-07-17T06:29:51;16.10;86.20
5588;DHT22;2816;49.778;9.986;2022-07-17T06:32:18;16.20;85.70
5588;DHT22;2816;49.778;9.986;2022-07-17T06:34:45;16.30;84.90
5588;DHT22;2816;49.778;9.986;2022-07-17T06:37:12;16.30;85.70
5588;DHT22;2816;49.778;9.986;2022-07-17T06:39:39;16.50;84.50
5588;DHT22;2816;49.778;9.986;2022-07-17T06:42:06;16.60;84.40
5588;DHT22;2816;49.778;9.986;2022-07-17T06:44:33;16.50;84.50
5588;DHT22;2816;49.778;9.986;2022-07-17T06:47:01;16.60;84.50
5588;DHT22;2816;49.778;9.986;2022-07-17T06:49:28;16.60;84.70
5588;DHT22;2816;49.778;9.986;2022-07-17T06:51:55;16.70;84.10
5588;DHT22;2816;49.778;9.986;2022-07-17T06:54:22;16.90;84.10
5588;DHT22;2816;49.778;9.986;2022-07-17T06:56:51;16.90;83.50
5588;DHT22;2816;49.778;9.986;2022-07-17T06:59:18;16.90;83.50
5588;DHT22;2816;49.778;9.986;2022-07-17T07:01:46;16.90;83.20
5588;DHT22;2816;49.778;9.986;2022-07-17T07:04:14;17.00;83.50
5588;DHT22;2816;49.778;9.986;2022-07-17T07:06:41;17.00;83.50
5588;DHT22;2816;49.778;9.986;2022-07-17T07:09:08;17.10;82.70
5588;DHT22;2816;49.778;9.986;2022-07-17T07:11:37;17.10;82.80
5588;DHT22;2816;49.778;9.986;2022-07-17T07:14:04;17.20;82.70
5588;DHT22;2816;49.778;9.986;2022-07-17T07:16:32;17.30;82.30
5588;DHT22;2816;49.778;9.986;2022-07-17T07:18:59;17.30;83.10
5588;DHT22;2816;49.778;9.986;2022-07-17T07:21:27;17.40;82.30
5588;DHT22;2816;49.778;9.986;2022-07-17T07:23:55;17.50;82.40
5588;DHT22;2816;49.778;9.986;2022-07-17T07:26:22;17.70;81.30
5588;DHT22;2816;49.778;9.986;2022-07-17T07:28:49;17.80;82.00
5588;DHT22;2816;49.778;9.986;2022-07-17T07:31:16;17.70;80.10
5588;DHT22;2816;49.778;9.986;2022-07-17T07:33:44;17.70;80.50
5588;DHT22;2816;49.778;9.986;2022-07-17T07:36:11;17.90;80.30
5588;DHT22;2816;49.778;9.986;2022-07-17T07:38:39;17.90;79.00
5588;DHT22;2816;49.778;9.986;2022-07-17T07:41:06;17.90;79.70
5588;DHT22;2816;49.778;9.986;2022-07-17T07:43:33;18.10;79.80
5588;DHT22;2816;49.778;9.986;2022-07-17T07:46:01;18.20;78.60
5588;DHT22;2816;49.778;9.986;2022-07-17T07:48:28;18.20;79.00
5588;DHT22;2816;49.778;9.986;2022-07-17T07:50:55;18.30;79.20
5588;DHT22;2816;49.778;9.986;2022-07-17T07:53:22;18.40;78.40
5588;DHT22;2816;49.778;9.986;2022-07-17T07:55:51;18.50;77.70
5588;DHT22;2816;49.778;9.986;2022-07-17T07:58:18;18.60;76.80
5588;DHT22;2816;49.778;9.986;2022-07-17T08:00:45;18.90;76.20
5588;DHT22;2816;49.778;9.986;2022-07-17T08:03:12;19.10;76.00
5588;DHT22;2816;49.778;9.986;2022-07-17T08:05:39;19.20;75.90
5588;DHT22;2816;49.778;9.986;2022-07-17T08:08:06;19.50;75.20
5588;DHT22;2816;49.778;9.986;2022-07-17T08:10:33;19.60;75.00
5588;DHT22;2816;49.778;9.986;2022-07-17T08:13:01;19.50;74.30
5588;DHT22;2816;49.778;9.986;2022-07-17T08:15:28;19.40;73.60
5588;DHT22;2816;49.778;9.986;2022-07-17T08:17:55;19.40;73.70
5588;DHT22;2816;49.778;9.986;2022-07-17T08:20:22;19.60;74.30
5588;DHT22;2816;49.778;9.986;2022-07-17T08:22:50;19.70;73.40
5588;DHT22;2816;49.778;9.986;2022-07-17T08:25:17;19.70;72.80
5588;DHT22;2816;49.778;9.986;2022-07-17T08:27:44;19.70;73.00
5588;DHT22;2816;49.778;9.986;2022-07-17T08:30:14;19.80;72.50
5588;DHT22;2816;49.778;9.986;2022-07-17T08:32:41;19.90;72.60
5588;DHT22;2816;49.778;9.986;2022-07-17T08:35:09;19.90;72.30
5588;DHT22;2816;49.778;9.986;2022-07-17T08:37:46;20.10;72.10
5588;DHT22;2816;49.778;9.986;2022-07-17T08:40:18;20.40;70.90
5588;DHT22;2816;49.778;9.986;2022-07-17T08:42:45;20.40;71.30
5588;DHT22;2816;49.778;9.986;2022-07-17T08:45:14;20.60;69.90
5588;DHT22;2816;49.778;9.986;2022-07-17T08:47:41;20.80;69.40
5588;DHT22;2816;49.778;9.986;2022-07-17T08:50:09;20.60;69.80
5588;DHT22;2816;49.778;9.986;2022-07-17T08:52:37;20.70;69.90
5588;DHT22;2816;49.778;9.986;2022-07-17T08:55:08;20.90;68.90
5588;DHT22;2816;49.778;9.986;2022-07-17T08:57:37;21.20;68.20
5588;DHT22;2816;49.778;9.986;2022-07-17T09:00:06;21.10;68.20
5588;DHT22;2816;49.778;9.986;2022-07-17T09:02:37;21.10;68.40
5588;DHT22;2816;49.778;9.986;2022-07-17T09:05:05;21.10;66.80
5588;DHT22;2816;49.778;9.986;2022-07-17T09:07:33;21.20;66.30
5588;DHT22;2816;49.778;9.986;2022-07-17T09:10:00;21.30;66.40
5588;DHT22;2816;49.778;9.986;2022-07-17T09:12:28;21.30;66.50
5588;DHT22;2816;49.778;9.986;2022-07-17T09:14:56;21.70;65.20
5588;DHT22;2816;49.778;9.986;2022-07-17T09:17:23;21.80;64.90
5588;DHT22;2816;49.778;9.986;2022-07-17T09:19:54;21.90;64.40
5588;DHT22;2816;49.778;9.986;2022-07-17T09:22:22;21.70;63.60
5588;DHT22;2816;49.778;9.986;2022-07-17T09:24:50;21.80;63.90
5588;DHT22;2816;49.778;9.986;2022-07-17T09:27:29;21.90;63.40
5588;DHT22;2816;49.778;9.986;2022-07-17T09:29:58;22.00;63.80
5588;DHT22;2816;49.778;9.986;2022-07-17T09:32:28;22.20;63.30
5588;DHT22;2816;49.778;9.986;2022-07-17T09:34:58;22.20;63.60
5588;DHT22;2816;49.778;9.986;2022-07-17T09:37:27;22.00;65.30
5588;DHT22;2816;49.778;9.986;2022-07-17T09:39:54;22.20;62.60
5588;DHT22;2816;49.778;9.986;2022-07-17T09:42:23;22.00;62.10
5588;DHT22;2816;49.778;9.986;2022-07-17T09:45:02;22.10;62.90
5588;DHT22;2816;49.778;9.986;2022-07-17T09:47:31;22.20;63.50
5588;DHT22;2816;49.778;9.986;2022-07-17T09:50:01;22.40;64.30
5588;DHT22;2816;49.778;9.986;2022-07-17T09:52:31;22.40;61.90
5588;DHT22;2816;49.778;9.986;2022-07-17T09:55:00;22.30;62.10
5588;DHT22;2816;49.778;9.986;2022-07-17T09:57:29;22.50;63.00
5588;DHT22;2816;49.778;9.986;2022-07-17T09:59:59;22.60;60.70
5588;DHT22;2816;49.778;9.986;2022-07-17T10:02:28;22.80;60.80
5588;DHT22;2816;49.778;9.986;2022-07-17T10:04:56;23.00;60.10
5588;DHT22;2816;49.778;9.986;2022-07-17T10:07:25;23.10;61.00
5588;DHT22;2816;49.778;9.986;2022-07-17T10:09:52;23.10;59.30
5588;DHT22;2816;49.778;9.986;2022-07-17T10:12:19;23.10;61.50
5588;DHT22;2816;49.778;9.986;2022-07-17T10:14:47;23.10;58.70
5588;DHT22;2816;49.778;9.986;2022-07-17T10:17:20;23.20;60.40
5588;DHT22;2816;49.778;9.986;2022-07-17T10:19:48;23.50;58.10
5588;DHT22;2816;49.778;9.986;2022-07-17T10:22:16;23.40;58.30
5588;DHT22;2816;49.778;9.986;2022-07-17T10:24:49;23.70;59.40
5588;DHT22;2816;49.778;9.986;2022-07-17T10:27:24;23.40;57.30
5588;DHT22;2816;49.778;9.986;2022-07-17T10:30:02;23.70;59.30
5588;DHT22;2816;49.778;9.986;2022-07-17T10:32:29;23.90;57.40
5588;DHT22;2816;49.778;9.986;2022-07-17T10:34:59;24.30;57.20
5588;DHT22;2816;49.778;9.986;2022-07-17T10:37:30;24.50;57.00
5588;DHT22;2816;49.778;9.986;2022-07-17T10:40:02;24.20;56.30
5588;DHT22;2816;49.778;9.986;2022-07-17T10:42:50;24.20;56.10
5588;DHT22;2816;49.778;9.986;2022-07-17T10:45:19;24.00;55.80
5588;DHT22;2816;49.778;9.986;2022-07-17T10:47:51;24.20;55.50
5588;DHT22;2816;49.778;9.986;2022-07-17T10:50:20;24.50;55.70
5588;DHT22;2816;49.778;9.986;2022-07-17T10:53:12;24.50;56.20
5588;DHT22;2816;49.778;9.986;2022-07-17T10:55:44;25.00;55.30
5588;DHT22;2816;49.778;9.986;2022-07-17T10:58:19;25.10;56.60
5588;DHT22;2816;49.778;9.986;2022-07-17T11:01:03;25.30;54.20
5588;DHT22;2816;49.778;9.986;2022-07-17T11:03:35;25.50;53.40
5588;DHT22;2816;49.778;9.986;2022-07-17T11:06:07;24.80;54.00
5588;DHT22;2816;49.778;9.986;2022-07-17T11:08:35;25.40;54.20
5588;DHT22;2816;49.778;9.986;2022-07-17T11:11:06;25.40;52.00
5588;DHT22;2816;49.778;9.986;2022-07-17T11:13:33;25.80;50.70
5588;DHT22;2816;49.778;9.986;2022-07-17T11:16:00;25.70;49.80
5588;DHT22;2816;49.778;9.986;2022-07-17T11:18:26;25.70;50.50
5588;DHT22;2816;49.778;9.986;2022-07-17T11:20:55;25.80;50.70
5588;DHT22;2816;49.778;9.986;2022-07-17T11:23:25;26.20;50.90
5588;DHT22;2816;49.778;9.986;2022-07-17T11:25:57;25.60;49.90
5588;DHT22;2816;49.778;9.986;2022-07-17T11:28:34;25.70;50.60
5588;DHT22;2816;49.778;9.986;2022-07-17T11:31:04;25.90;49.50
5588;DHT22;2816;49.778;9.986;2022-07-17T11:33:31;26.10;50.40
5588;DHT22;2816;49.778;9.986;2022-07-17T11:35:58;26.20;50.50
5588;DHT22;2816;49.778;9.986;2022-07-17T11:38:27;26.30;50.20
5588;DHT22;2816;49.778;9.986;2022-07-17T11:40:55;26.30;52.20
5588;DHT22;2816;49.778;9.986;2022-07-17T11:43:23;26.30;48.80
5588;DHT22;2816;49.778;9.986;2022-07-17T11:45:51;26.30;48.20
5588;DHT22;2816;49.778;9.986;2022-07-17T11:48:18;26.10;48.90
5588;DHT22;2816;49.778;9.986;2022-07-17T11:50:55;26.10;47.60
5588;DHT22;2816;49.778;9.986;2022-07-17T11:53:33;26.80;46.50
5588;DHT22;2816;49.778;9.986;2022-07-17T11:56:00;27.00;48.90
5588;DHT22;2816;49.778;9.986;2022-07-17T11:58:28;27.10;46.70
5588;DHT22;2816;49.778;9.986;2022-07-17T12:01:08;27.20;46.60
5588;DHT22;2816;49.778;9.986;2022-07-17T12:03:35;27.20;46.80
5588;DHT22;2816;49.778;9.986;2022-07-17T12:06:02;27.20;47.50
5588;DHT22;2816;49.778;9.986;2022-07-17T12:08:30;27.20;48.10
5588;DHT22;2816;49.778;9.986;2022-07-17T12:11:04;27.00;47.70
5588;DHT22;2816;49.778;9.986;2022-07-17T12:13:39;27.00;47.70
5588;DHT22;2816;49.778;9.986;2022-07-17T12:16:35;26.90;47.50
5588;DHT22;2816;49.778;9.986;2022-07-17T12:19:06;26.90;48.30
5588;DHT22;2816;49.778;9.986;2022-07-17T12:24:21;27.30;46.50
5588;DHT22;2816;49.778;9.986;2022-07-17T12:26:49;27.20;47.90
5588;DHT22;2816;49.778;9.986;2022-07-17T12:29:17;27.00;46.60
5588;DHT22;2816;49.778;9.986;2022-07-17T12:31:45;27.00;47.60
5588;DHT22;2816;49.778;9.986;2022-07-17T12:34:12;27.20;45.70
5588;DHT22;2816;49.778;9.986;2022-07-17T12:36:41;27.60;46.20
5588;DHT22;2816;49.778;9.986;2022-07-17T12:39:07;27.70;47.70
5588;DHT22;2816;49.778;9.986;2022-07-17T12:41:34;28.30;45.90
5588;DHT22;2816;49.778;9.986;2022-07-17T12:44:01;28.70;46.20
5588;DHT22;2816;49.778;9.986;2022-07-17T12:46:28;28.30;46.00
5588;DHT22;2816;49.778;9.986;2022-07-17T12:48:57;28.20;46.00
5588;DHT22;2816;49.778;9.986;2022-07-17T12:51:24;28.00;46.20
5588;DHT22;2816;49.778;9.986;2022-07-17T12:53:51;28.30;46.20
5588;DHT22;2816;49.778;9.986;2022-07-17T12:56:17;28.50;46.10
5588;DHT22;2816;49.778;9.986;2022-07-17T12:58:44;28.00;45.60
5588;DHT22;2816;49.778;9.986;2022-07-17T13:01:11;28.20;45.40
5588;DHT22;2816;49.778;9.986;2022-07-17T13:03:38;27.90;45.60
5588;DHT22;2816;49.778;9.986;2022-07-17T13:06:07;28.40;45.00
5588;DHT22;2816;49.778;9.986;2022-07-17T13:08:34;28.00;46.20
5588;DHT22;2816;49.778;9.986;2022-07-17T13:11:02;28.20;45.60
5588;DHT22;2816;49.778;9.986;2022-07-17T13:13:30;28.00;45.40
5588;DHT22;2816;49.778;9.986;2022-07-17T13:15:57;28.40;45.00
5588;DHT22;2816;49.778;9.986;2022-07-17T13:18:24;28.70;45.90
5588;DHT22;2816;49.778;9.986;2022-07-17T13:20:51;28.60;45.20
5588;DHT22;2816;49.778;9.986;2022-07-17T13:23:19;28.70;44.90
5588;DHT22;2816;49.778;9.986;2022-07-17T13:25:46;29.30;45.80
5588;DHT22;2816;49.778;9.986;2022-07-17T13:28:14;28.90;44.40
5588;DHT22;2816;49.778;9.986;2022-07-17T13:30:41;29.00;44.20
5588;DHT22;2816;49.778;9.986;2022-07-17T13:33:08;28.70;44.50
5588;DHT22;2816;49.778;9.986;2022-07-17T13:35:35;29.00;44.50
5588;DHT22;2816;49.778;9.986;2022-07-17T13:38:02;29.20;43.00
5588;DHT22;2816;49.778;9.986;2022-07-17T13:40:32;29.10;43.20
5588;DHT22;2816;49.778;9.986;2022-07-17T13:42:59;29.00;43.10
5588;DHT22;2816;49.778;9.986;2022-07-17T13:45:27;28.70;43.50
5588;DHT22;2816;49.778;9.986;2022-07-17T13:47:54;29.00;43.50
5588;DHT22;2816;49.778;9.986;2022-07-17T13:50:22;29.20;42.70
5588;DHT22;2816;49.778;9.986;2022-07-17T13:52:49;29.50;43.20
5588;DHT22;2816;49.778;9.986;2022-07-17T13:55:17;29.40;41.70
5588;DHT22;2816;49.778;9.986;2022-07-17T13:57:45;29.20;42.40
5588;DHT22;2816;49.778;9.986;2022-07-17T14:00:13;29.00;42.90
5588;DHT22;2816;49.778;9.986;2022-07-17T14:02:40;29.10;42.20
5588;DHT22;2816;49.778;9.986;2022-07-17T14:05:08;28.80;41.80
5588;DHT22;2816;49.778;9.986;2022-07-17T14:07:35;28.60;41.70
5588;DHT22;2816;49.778;9.986;2022-07-17T14:10:03;29.50;42.40
5588;DHT22;2816;49.778;9.986;2022-07-17T14:12:30;29.70;41.30
5588;DHT22;2816;49.778;9.986;2022-07-17T14:14:59;29.80;41.40
5588;DHT22;2816;49.778;9.986;2022-07-17T14:17:26;29.40;41.80
5588;DHT22;2816;49.778;9.986;2022-07-17T14:19:53;30.00;41.70
5588;DHT22;2816;49.778;9.986;2022-07-17T14:22:20;30.10;43.40
5588;DHT22;2816;49.778;9.986;2022-07-17T14:24:47;30.30;41.60
5588;DHT22;2816;49.778;9.986;2022-07-17T14:27:14;30.20;41.50
5588;DHT22;2816;49.778;9.986;2022-07-17T14:29:41;30.20;40.80
5588;DHT22;2816;49.778;9.986;2022-07-17T14:32:09;29.60;40.00
5588;DHT22;2816;49.778;9.986;2022-07-17T14:34:36;29.90;40.90
5588;DHT22;2816;49.778;9.986;2022-07-17T14:37:03;30.30;41.00
5588;DHT22;2816;49.778;9.986;2022-07-17T14:39:32;30.60;41.00
5588;DHT22;2816;49.778;9.986;2022-07-17T14:42:00;30.20;40.00
5588;DHT22;2816;49.778;9.986;2022-07-17T14:44:27;29.90;41.90
5588;DHT22;2816;49.778;9.986;2022-07-17T14:46:56;29.70;40.40
5588;DHT22;2816;49.778;9.986;2022-07-17T14:49:25;29.20;39.30
5588;DHT22;2816;49.778;9.986;2022-07-17T14:51:52;29.30;40.40
5588;DHT22;2816;49.778;9.986;2022-07-17T14:54:19;29.50;41.00
5588;DHT22;2816;49.778;9.986;2022-07-17T14:56:46;29.90;40.50
5588;DHT22;2816;49.778;9.986;2022-07-17T14:59:13;29.30;39.90
5588;DHT22;2816;49.778;9.986;2022-07-17T15:01:40;29.30;39.90
5588;DHT22;2816;49.778;9.986;2022-07-17T15:04:07;29.30;39.20
5588;DHT22;2816;49.778;9.986;2022-07-17T15:06:38;29.30;39.30
5588;DHT22;2816;49.778;9.986;2022-07-17T15:09:05;29.50;40.40
5588;DHT22;2816;49.778;9.986;2022-07-17T15:11:32;29.40;39.80
5588;DHT22;2816;49.778;9.986;2022-07-17T15:13:59;29.30;40.20
5588;DHT22;2816;49.778;9.986;2022-07-17T15:16:26;29.50;39.70
5588;DHT22;2816;49.778;9.986;2022-07-17T15:18:53;29.80;39.90
5588;DHT22;2816;49.778;9.986;2022-07-17T15:21:20;30.00;39.60
5588;DHT22;2816;49.778;9.986;2022-07-17T15:23:48;29.80;39.50
5588;DHT22;2816;49.778;9.986;2022-07-17T15:26:15;29.70;40.10
5588;DHT22;2816;49.778;9.986;2022-07-17T15:28:42;29.30;39.50
5588;DHT22;2816;49.778;9.986;2022-07-17T15:31:09;29.50;39.10
5588;DHT22;2816;49.778;9.986;2022-07-17T15:33:36;29.60;40.60
5588;DHT22;2816;49.778;9.986;2022-07-17T15:36:07;29.20;39.70
5588;DHT22;2816;49.778;9.986;2022-07-17T15:38:34;29.20;39.40
5588;DHT22;2816;49.778;9.986;2022-07-17T15:41:03;29.50;38.80
5588;DHT22;2816;49.778;9.986;2022-07-17T15:43:31;29.90;39.80
5588;DHT22;2816;49.778;9.986;2022-07-17T15:45:58;30.00;38.20
5588;DHT22;2816;49.778;9.986;2022-07-17T15:48:25;29.90;38.80
5588;DHT22;2816;49.778;9.986;2022-07-17T15:50:52;29.80;39.30
5588;DHT22;2816;49.778;9.986;2022-07-17T15:53:19;30.00;38.70
5588;DHT22;2816;49.778;9.986;2022-07-17T15:55:46;29.90;39.20
5588;DHT22;2816;49.778;9.986;2022-07-17T15:58:14;29.70;39.60
5588;DHT22;2816;49.778;9.986;2022-07-17T16:00:41;30.00;38.80
5588;DHT22;2816;49.778;9.986;2022-07-17T16:03:09;29.90;39.40
5588;DHT22;2816;49.778;9.986;2022-07-17T16:05:36;30.10;38.60
5588;DHT22;2816;49.778;9.986;2022-07-17T16:08:04;29.90;38.50
5588;DHT22;2816;49.778;9.986;2022-07-17T16:10:31;29.20;38.70